Time;durP1;ratioP1;P1;durP2;ratioP2;P2;SDS_P1;SDS_P2;PMS_P1;PMS_P2;Temp;Humidity;BMP_temperature;BMP_pressure;BME280_temperature;BME280_humidity;BME280_pressure;Samples;Min_cycle;Max_cycle;Signal;HPM_P1;HPM_P2
2022/07/25 00:01:53;;;;;;;13.90;10.90;;;;;;;21.90;100.00;93242.75;5071691;28;20044;-81
2022/07/25 00:04:21;;;;;;;13.80;11.57;;;;;;;22.04;100.00;93274.22;5071267;28;20040;-82
2022/07/25 00:06:47;;;;;;;14.13;11.57;;;;;;;22.01;100.00;93267.72;5071251;28;20110;-81
2022/07/25 00:09:14;;;;;;;14.82;11.23;;;;;;;21.98;100.00;93262.28;5071286;28;20091;-81
2022/07/25 00:11:43;;;;;;;12.75;10.60;;;;;;;22.03;100.00;93257.75;5071450;28;20558;-81
2022/07/25 00:14:09;;;;;;;13.57;10.82;;;;;;;22.05;100.00;93251.44;5071219;28;20527;-82
2022/07/25 00:16:36;;;;;;;14.20;11.48;;;;;;;22.05;100.00;93248.81;5057922;28;20052;-83
2022/07/25 00:19:03;;;;;;;13.90;11.65;;;;;;;22.01;100.00;93249.41;5071215;28;20052;-82
2022/07/25 00:21:30;;;;;;;12.68;11.00;;;;;;;22.01;100.00;93253.84;5070956;28;20048;-82
2022/07/25 00:23:56;;;;;;;12.88;11.02;;;;;;;21.95;100.00;93252.34;5071414;28;20083;-83
2022/07/25 00:26:23;;;;;;;13.85;10.57;;;;;;;21.77;100.00;93233.72;5070816;28;20044;-82
2022/07/25 00:28:51;;;;;;;12.68;10.63;;;;;;;21.88;100.00;93250.84;5070576;28;20045;-82
2022/07/25 00:31:18;;;;;;;15.52;10.95;;;;;;;21.78;100.00;93243.13;5071014;28;20048;-83
2022/07/25 00:33:45;;;;;;;13.60;10.63;;;;;;;21.79;100.00;93234.22;5071147;28;20044;-82
2022/07/25 00:36:11;;;;;;;12.77;10.68;;;;;;;21.82;100.00;93238.13;5070768;28;20447;-82
2022/07/25 00:38:38;;;;;;;14.38;10.70;;;;;;;21.78;100.00;93227.44;5070596;28;20052;-82
2022/07/25 00:41:05;;;;;;;12.10;10.73;;;;;;;21.65;100.00;93218.41;5070976;28;20094;-82
2022/07/25 00:43:32;;;;;;;13.02;10.93;;;;;;;21.69;100.00;93239.53;5070713;28;20048;-82
2022/07/25 00:46:00;;;;;;;13.63;10.93;;;;;;;21.52;100.00;93208.63;5070767;28;20097;-82
2022/07/25 00:48:27;;;;;;;12.82;11.27;;;;;;;21.51;100.00;93209.69;5070350;28;20060;-82
2022/07/25 00:50:55;;;;;;;14.20;10.80;;;;;;;21.75;100.00;93230.59;5070601;28;20041;-82
2022/07/25 00:53:22;;;;;;;12.98;10.27;;;;;;;21.70;100.00;93217.59;5070397;28;20147;-82
2022/07/25 00:55:48;;;;;;;11.13;9.82;;;;;;;21.72;100.00;93229.31;5070370;28;20094;-82
2022/07/25 00:58:17;;;;;;;11.98;10.07;;;;;;;21.66;100.00;93227.03;5070166;28;20098;-82
2022/07/25 01:00:44;;;;;;;13.30;10.43;;;;;;;21.55;100.00;93216.69;5070353;28;20051;-82
2022/07/25 01:03:12;;;;;;;15.45;11.30;;;;;;;21.62;100.00;93224.97;5069882;28;20056;-82
2022/07/25 01:05:40;;;;;;;12.88;9.95;;;;;;;21.53;100.00;93210.97;5069958;28;20558;-82
2022/07/25 01:08:07;;;;;;;13.00;10.30;;;;;;;21.58;100.00;93229.19;5070027;28;20091;-82
2022/07/25 01:10:34;;;;;;;12.65;10.80;;;;;;;21.32;100.00;93192.88;5069815;28;20044;-81
2022/07/25 01:13:01;;;;;;;12.65;10.40;;;;;;;21.39;100.00;93221.31;5069955;28;20496;-81
2022/07/25 01:15:28;;;;;;;11.68;10.35;;;;;;;21.36;100.00;93225.25;5070272;28;20113;-80
2022/07/25 01:17:55;;;;;;;12.73;11.02;;;;;;;21.31;100.00;93217.47;5069978;28;20412;-80
2022/07/25 01:20:25;;;;;;;13.55;11.57;;;;;;;21.20;100.00;93222.00;5070159;28;20041;-80
2022/07/25 01:22:52;;;;;;;14.95;12.05;;;;;;;21.26;100.00;93227.97;5069707;28;20109;-81
2022/07/25 01:25:19;;;;;;;12.95;10.65;;;;;;;21.24;100.00;93224.81;5069655;28;20040;-82
2022/07/25 01:27:47;;;;;;;13.10;10.65;;;;;;;21.22;100.00;93229.56;5069650;28;20574;-81
2022/07/25 01:30:16;;;;;;;13.82;10.38;;;;;;;21.20;100.00;93227.22;5069935;28;20037;-81
2022/07/25 01:32:44;;;;;;;12.95;10.80;;;;;;;21.16;100.00;93228.03;5069822;28;20052;-81
2022/07/25 01:35:12;;;;;;;14.35;10.57;;;;;;;21.12;100.00;93227.03;5069558;28;20437;-81
2022/07/25 01:37:41;;;;;;;14.35;11.13;;;;;;;21.13;100.00;93223.38;5068937;28;20455;-82
2022/07/25 01:40:08;;;;;;;14.95;10.73;;;;;;;20.98;100.00;93206.00;5069523;28;20194;-81
2022/07/25 01:42:35;;;;;;;12.10;10.18;;;;;;;21.09;100.00;93230.97;5069455;28;20059;-81
2022/07/25 01:45:02;;;;;;;12.75;10.00;;;;;;;20.95;100.00;93205.50;5069617;28;20098;-81
2022/07/25 01:47:28;;;;;;;11.32;9.77;;;;;;;21.06;100.00;93219.25;5069281;28;20048;-81
2022/07/25 01:49:55;;;;;;;14.02;10.75;;;;;;;21.04;100.00;93223.97;5069919;28;20121;-81
2022/07/25 01:52:22;;;;;;;14.25;11.20;;;;;;;21.02;100.00;93227.91;5069150;28;20044;-81
2022/07/25 01:54:50;;;;;;;14.70;10.90;;;;;;;20.93;100.00;93223.25;5069409;28;20049;-81
2022/07/25 01:57:18;;;;;;;12.32;10.35;;;;;;;20.90;100.00;93218.59;5069231;28;20047;-81
2022/07/25 01:59:44;;;;;;;12.98;10.65;;;;;;;20.88;100.00;93225.91;5069357;28;20056;-82
2022/07/25 02:02:11;;;;;;;12.68;11.13;;;;;;;20.76;100.00;93204.59;5069295;28;20044;-81
2022/07/25 02:04:38;;;;;;;14.75;11.35;;;;;;;20.86;100.00;93214.97;5069341;28;20045;-80
2022/07/25 02:07:05;;;;;;;14.68;11.57;;;;;;;20.60;100.00;93189.03;5069253;28;20044;-80
2022/07/25 02:09:32;;;;;;;13.65;10.80;;;;;;;20.88;100.00;93227.75;5067851;28;20045;-82
2022/07/25 02:12:00;;;;;;;14.45;11.82;;;;;;;20.76;100.00;93222.84;5069435;28;20188;-81
2022/07/25 02:14:27;;;;;;;13.00;11.27;;;;;;;20.75;100.00;93235.13;5068537;28;20064;-81
2022/07/25 02:16:54;;;;;;;13.05;11.57;;;;;;;20.73;100.00;93224.19;5069278;28;20040;-81
2022/07/25 02:19:21;;;;;;;15.10;12.30;;;;;;;20.71;100.00;93226.28;5069451;28;20059;-81
2022/07/25 02:21:47;;;;;;;14.05;11.35;;;;;;;20.50;100.00;93213.38;5069852;28;20146;-81
2022/07/25 02:24:14;;;;;;;13.52;11.68;;;;;;;20.56;100.00;93221.97;5070186;28;20134;-81
2022/07/25 02:26:41;;;;;;;13.90;11.73;;;;;;;20.57;100.00;93236.56;5069804;28;20121;-81
2022/07/25 02:29:09;;;;;;;12.77;10.95;;;;;;;20.57;100.00;93231.34;5069743;28;20048;-82
2022/07/25 02:31:36;;;;;;;15.32;11.27;;;;;;;20.56;100.00;93232.41;5069745;28;20049;-81
2022/07/25 02:34:03;;;;;;;12.85;10.52;;;;;;;20.48;100.00;93215.50;5069915;28;20057;-82
2022/07/25 02:36:30;;;;;;;13.88;11.40;;;;;;;20.54;100.00;93232.66;5069945;28;20145;-82
2022/07/25 02:38:57;;;;;;;14.35;11.05;;;;;;;20.51;100.00;93230.59;5069375;28;20603;-81
2022/07/25 02:41:24;;;;;;;14.60;11.55;;;;;;;20.48;100.00;93235.56;5070075;28;20106;-81
2022/07/25 02:43:50;;;;;;;12.68;10.82;;;;;;;20.40;100.00;93239.53;5069739;28;20057;-79
2022/07/25 02:46:18;;;;;;;13.48;10.27;;;;;;;20.33;100.00;93229.41;5069627;28;20068;-83
2022/07/25 02:48:45;;;;;;;11.77;9.65;;;;;;;20.25;100.00;93232.56;5072097;28;20111;-81
2022/07/25 02:51:12;;;;;;;12.88;10.27;;;;;;;20.22;100.00;93233.13;5073282;28;20052;-81
2022/07/25 02:53:39;;;;;;;13.60;10.48;;;;;;;20.08;100.00;93218.06;5073230;28;20064;-81
2022/07/25 02:56:06;;;;;;;13.13;10.30;;;;;;;20.14;100.00;93234.47;5073464;28;20044;-81
2022/07/25 02:58:33;;;;;;;13.63;10.73;;;;;;;20.09;100.00;93240.47;5073096;28;20056;-81
2022/07/25 03:01:00;;;;;;;11.63;9.52;;;;;;;20.07;100.00;93237.38;5073338;28;20044;-81
2022/07/25 03:03:28;;;;;;;12.40;10.55;;;;;;;19.95;100.00;93229.81;5073246;28;20056;-81
2022/07/25 03:05:54;;;;;;;13.55;11.02;;;;;;;19.96;100.00;93243.63;5073172;28;20133;-81
2022/07/25 03:08:21;;;;;;;13.07;10.13;;;;;;;19.87;100.00;93238.22;5072861;28;20052;-81
2022/07/25 03:10:48;;;;;;;11.77;10.05;;;;;;;19.85;100.00;93235.06;5072929;28;20109;-81
2022/07/25 03:13:15;;;;;;;14.20;10.65;;;;;;;19.73;100.00;93220.50;5072899;28;20559;-81
2022/07/25 03:15:41;;;;;;;13.20;9.90;;;;;;;19.81;100.00;93244.50;5073047;28;20585;-81
2022/07/25 03:18:08;;;;;;;16.67;11.90;;;;;;;19.78;100.00;93232.75;5072717;28;20049;-81
2022/07/25 03:20:37;;;;;;;15.68;11.95;;;;;;;19.79;100.00;93243.97;5067823;28;20056;-81
2022/07/25 03:23:03;;;;;;;13.45;11.40;;;;;;;19.76;100.00;93246.06;5058473;28;20526;-82
2022/07/25 03:25:30;;;;;;;13.40;10.68;;;;;;;19.76;100.00;93245.25;5061314;28;20110;-81
2022/07/25 03:27:57;;;;;;;12.98;10.65;;;;;;;19.63;100.00;93241.41;5052403;28;20056;-81
2022/07/25 03:30:24;;;;;;;14.98;10.85;;;;;;;19.67;100.00;93242.44;5052015;28;20099;-81
2022/07/25 03:32:50;;;;;;;17.65;11.25;;;;;;;19.69;100.00;93242.97;5051822;28;20574;-82
2022/07/25 03:35:17;;;;;;;14.93;12.00;;;;;;;19.68;100.00;93238.00;5052253;28;20282;-81
2022/07/25 03:37:45;;;;;;;20.67;11.20;;;;;;;19.61;100.00;93243.50;5052131;28;20049;-81
2022/07/25 03:40:13;;;;;;;16.70;11.15;;;;;;;19.59;100.00;93237.78;5052406;28;20124;-81
2022/07/25 03:42:40;;;;;;;17.75;11.70;;;;;;;19.63;100.00;93242.19;5062202;28;20052;-81
2022/07/25 03:45:07;;;;;;;15.65;10.80;;;;;;;19.62;100.00;93245.84;5072203;28;20574;-81
2022/07/25 03:47:34;;;;;;;15.52;11.32;;;;;;;19.52;100.00;93230.22;5072049;28;20098;-81
2022/07/25 03:50:01;;;;;;;18.23;12.00;;;;;;;19.52;100.00;93240.66;5072263;28;20109;-81
2022/07/25 03:52:28;;;;;;;15.45;11.20;;;;;;;19.56;100.00;93236.47;5072167;28;20478;-81
2022/07/25 03:54:56;;;;;;;17.73;11.73;;;;;;;19.61;100.00;93239.06;5072543;28;20052;-81
2022/07/25 03:57:22;;;;;;;13.57;10.80;;;;;;;19.62;100.00;93237.22;5072384;28;20490;-81
2022/07/25 03:59:49;;;;;;;15.45;11.45;;;;;;;19.61;100.00;93246.88;5071403;28;20041;-82
2022/07/25 04:02:16;;;;;;;16.23;11.15;;;;;;;19.60;100.00;93249.75;5072133;28;20056;-81
2022/07/25 04:04:42;;;;;;;15.48;11.73;;;;;;;19.60;100.00;93249.75;5072020;28;20048;-81
2022/07/25 04:07:09;;;;;;;13.27;10.68;;;;;;;19.56;100.00;93246.09;5072293;28;20109;-81
2022/07/25 04:09:36;;;;;;;13.90;11.02;;;;;;;19.55;100.00;93254.97;5071875;28;20044;-82
2022/07/25 04:12:05;;;;;;;18.08;11.98;;;;;;;19.53;100.00;93255.22;5072155;28;20056;-81
2022/07/25 04:14:32;;;;;;;15.32;9.88;;;;;;;19.52;100.00;93242.50;5071863;28;20045;-81
2022/07/25 04:16:58;;;;;;;15.25;10.15;;;;;;;19.55;100.00;93247.16;5071664;28;20048;-81
2022/07/25 04:19:25;;;;;;;15.13;10.93;;;;;;;19.64;100.00;93248.19;5071747;28;20041;-81
2022/07/25 04:21:52;;;;;;;12.65;9.95;;;;;;;19.68;100.00;93251.03;5071750;28;20470;-81
2022/07/25 04:24:19;;;;;;;13.95;10.80;;;;;;;19.63;100.00;93236.22;5071538;28;20045;-81
2022/07/25 04:26:45;;;;;;;15.10;10.63;;;;;;;19.63;100.00;93231.75;5071596;28;20122;-81
2022/07/25 04:29:13;;;;;;;15.07;10.75;;;;;;;19.78;100.00;93248.41;5071704;28;20430;-81
2022/07/25 04:31:40;;;;;;;13.50;11.27;;;;;;;19.83;100.00;93250.19;5071344;28;20480;-80
2022/07/25 04:34:07;;;;;;;15.88;11.18;;;;;;;19.87;100.00;93249.41;5071550;28;20057;-81
2022/07/25 04:36:33;;;;;;;13.35;11.18;;;;;;;19.91;100.00;93244.44;5071874;28;20452;-80
2022/07/25 04:39:00;;;;;;;15.75;11.93;;;;;;;19.84;100.00;93233.50;5071504;28;20045;-80
2022/07/25 04:41:27;;;;;;;14.32;11.18;;;;;;;19.98;100.00;93252.00;5071280;28;20060;-80
2022/07/25 04:43:54;;;;;;;14.18;11.00;;;;;;;20.03;100.00;93244.94;5071311;28;20048;-80
2022/07/25 04:46:22;;;;;;;15.38;12.43;;;;;;;20.10;100.00;93238.66;5071390;28;20037;-80
2022/07/25 04:48:50;;;;;;;14.88;11.65;;;;;;;20.09;100.00;93232.66;5070854;28;20094;-81
2022/07/25 04:51:17;;;;;;;16.83;11.25;;;;;;;20.23;100.00;93258.16;5070919;28;20040;-82
2022/07/25 04:53:44;;;;;;;16.83;12.80;;;;;;;20.20;100.00;93240.44;5070916;28;20048;-82
2022/07/25 04:56:10;;;;;;;15.57;12.82;;;;;;;20.32;100.00;93247.94;5070666;28;20105;-81
2022/07/25 04:58:37;;;;;;;17.27;12.55;;;;;;;20.32;100.00;93247.94;5071087;28;20197;-82
2022/07/25 05:01:04;;;;;;;16.83;12.68;;;;;;;20.40;100.00;93252.56;5070933;28;20040;-81
2022/07/25 05:03:33;;;;;;;18.98;12.60;;;;;;;20.45;100.00;93247.31;5071055;28;20105;-80
2022/07/25 05:05:59;;;;;;;19.08;13.05;;;;;;;20.40;100.00;93239.53;5070719;28;20471;-80
2022/07/25 05:08:26;;;;;;;16.35;12.38;;;;;;;20.58;100.00;93252.97;5071107;28;20125;-81
2022/07/25 05:10:53;;;;;;;16.25;12.98;;;;;;;20.66;100.00;93255.03;5070355;28;20093;-81
2022/07/25 05:13:19;;;;;;;18.42;12.63;;;;;;;20.76;100.00;93249.75;5070548;28;20451;-80
2022/07/25 05:15:46;;;;;;;14.23;11.55;;;;;;;20.81;100.00;93252.31;5070677;28;20059;-80
2022/07/25 05:18:13;;;;;;;17.35;12.93;;;;;;;20.95;100.00;93255.13;5070586;28;20044;-80
2022/07/25 05:20:41;;;;;;;16.45;12.18;;;;;;;21.00;100.00;93256.09;5070664;28;20044;-80
2022/07/25 05:23:08;;;;;;;17.75;14.02;;;;;;;21.02;100.00;93243.56;5070541;28;20044;-80
2022/07/25 05:25:34;;;;;;;20.70;13.50;;;;;;;21.11;100.00;93252.38;5070390;28;20504;-81
2022/07/25 05:28:01;;;;;;;21.50;14.95;;;;;;;21.00;100.00;93254.28;5070497;28;20057;-80
2022/07/25 05:30:28;;;;;;;19.08;14.95;;;;;;;21.07;100.00;93256.59;5069996;28;20554;-81
2022/07/25 05:32:55;;;;;;;22.30;15.10;;;;;;;21.15;100.00;93260.44;5063045;28;20052;-81
2022/07/25 05:35:22;;;;;;;30.38;20.23;;;;;;;21.11;100.00;93262.03;5068514;28;20098;-80
2022/07/25 05:37:50;;;;;;;24.95;16.65;;;;;;;21.18;100.00;93239.78;5070256;28;20385;-81
2022/07/25 05:40:18;;;;;;;21.67;15.68;;;;;;;21.42;100.00;93265.16;5070221;28;20045;-81
2022/07/25 05:42:45;;;;;;;23.88;15.82;;;;;;;21.52;100.00;93256.44;5070413;28;20408;-81
2022/07/25 05:45:11;;;;;;;25.35;17.15;;;;;;;21.52;100.00;93214.63;5069726;28;20520;-81
2022/07/25 05:47:38;;;;;;;22.77;16.50;;;;;;;21.80;100.00;93237.63;5070124;28;20101;-81
2022/07/25 05:50:05;;;;;;;22.35;16.42;;;;;;;22.05;100.00;93251.44;5070305;28;20048;-81
2022/07/25 05:52:32;;;;;;;21.42;14.93;;;;;;;22.28;100.00;93255.09;5070100;28;20048;-81
2022/07/25 05:55:00;;;;;;;26.35;16.13;;;;;;;22.42;100.00;93253.34;5070233;28;20126;-81
2022/07/25 05:57:27;;;;;;;20.67;15.30;;;;;;;22.43;100.00;93230.53;5070104;28;20359;-82
2022/07/25 05:59:54;;;;;;;19.25;14.10;;;;;;;22.65;100.00;93247.53;5070066;28;20051;-81
2022/07/25 06:02:20;;;;;;;20.33;14.07;;;;;;;22.80;100.00;93242.09;5069980;28;20052;-81
2022/07/25 06:04:47;;;;;;;17.77;13.20;;;;;;;22.97;100.00;93235.53;5069961;28;20678;-81
2022/07/25 06:07:14;;;;;;;19.75;13.30;;;;;;;23.15;100.00;93241.78;5070003;28;20060;-82
2022/07/25 06:09:41;;;;;;;18.33;11.80;;;;;;;23.21;100.00;93232.00;5069873;28;20458;-81
2022/07/25 06:12:09;;;;;;;17.88;13.13;;;;;;;23.46;100.00;93241.28;5069790;28;20117;-81
2022/07/25 06:14:36;;;;;;;15.13;11.80;;;;;;;23.64;97.43;93232.88;5070072;28;20044;-81
2022/07/25 06:17:02;;;;;;;16.05;12.43;;;;;;;23.84;93.09;93235.09;5069617;28;20098;-81
2022/07/25 06:19:29;;;;;;;14.25;10.57;;;;;;;23.97;93.11;93230.91;5069713;28;20102;-81
2022/07/25 06:21:56;;;;;;;17.17;11.13;;;;;;;24.21;89.73;93239.66;5069644;28;20394;-81
2022/07/25 06:24:22;;;;;;;16.55;10.57;;;;;;;24.41;87.81;93228.72;5070840;28;20044;-81
2022/07/25 06:26:49;;;;;;;14.98;10.63;;;;;;;24.67;85.16;93237.88;5073454;28;20126;-81
2022/07/25 06:29:17;;;;;;;16.02;10.75;;;;;;;24.99;84.71;93240.59;5073946;28;20114;-81
2022/07/25 06:31:44;;;;;;;16.58;11.07;;;;;;;25.27;82.59;93235.94;5073838;28;20048;-81
2022/07/25 06:34:11;;;;;;;16.75;11.68;;;;;;;25.49;81.30;93223.81;5073743;28;20066;-81
2022/07/25 06:36:37;;;;;;;15.52;10.52;;;;;;;25.72;79.24;93223.78;5073626;28;20040;-81
2022/07/25 06:39:04;;;;;;;16.52;10.48;;;;;;;26.09;75.88;93236.72;5073330;28;20579;-81
2022/07/25 06:41:31;;;;;;;17.17;10.93;;;;;;;26.26;73.85;93239.44;5073025;28;20105;-81
2022/07/25 06:43:57;;;;;;;14.65;10.38;;;;;;;26.11;73.52;93235.34;5073549;28;20053;-82
2022/07/25 06:46:29;;;;;;;17.85;11.07;;;;;;;26.50;73.38;93238.22;5073408;28;20122;-81
2022/07/25 06:48:56;;;;;;;17.02;10.68;;;;;;;26.33;72.72;93233.69;5073305;28;20052;-81
2022/07/25 06:51:23;;;;;;;20.77;10.50;;;;;;;26.60;72.11;93225.81;5073080;28;20102;-80
2022/07/25 06:53:50;;;;;;;17.88;10.40;;;;;;;26.81;71.06;93223.31;5072404;28;20056;-81
2022/07/25 06:56:16;;;;;;;17.80;10.27;;;;;;;27.19;73.80;93225.31;5073069;28;20105;-81
2022/07/25 06:58:43;;;;;;;17.85;10.15;;;;;;;27.48;68.90;93221.19;5072940;28;20102;-81
2022/07/25 07:01:10;;;;;;;16.02;10.02;;;;;;;27.66;67.24;93197.38;5072885;28;20090;-80
2022/07/25 07:03:38;;;;;;;16.02;9.25;;;;;;;27.95;62.75;93222.22;5073047;28;20052;-80
2022/07/25 07:06:06;;;;;;;12.48;8.75;;;;;;;28.13;62.99;93224.75;5073150;28;20048;-80
2022/07/25 07:08:32;;;;;;;17.10;9.80;;;;;;;28.46;61.02;93212.78;5073258;28;20052;-80
2022/07/25 07:11:00;;;;;;;18.20;9.63;;;;;;;28.49;62.06;93217.41;5072525;28;20048;-80
2022/07/25 07:13:27;;;;;;;12.05;8.68;;;;;;;28.62;59.53;93213.72;5054969;28;20075;-80
2022/07/25 07:15:54;;;;;;;12.32;8.95;;;;;;;28.94;59.26;93215.97;5070528;28;20048;-80
2022/07/25 07:18:22;;;;;;;14.52;7.95;;;;;;;29.27;58.91;93215.16;5071902;28;20078;-81
2022/07/25 07:20:50;;;;;;;12.13;7.40;;;;;;;29.48;57.28;93211.66;5072055;28;20101;-81
2022/07/25 07:23:17;;;;;;;13.80;7.55;;;;;;;29.04;57.03;93217.41;5072006;28;20052;-81
2022/07/25 07:25:45;;;;;;;8.38;7.07;;;;;;;28.39;58.76;93205.34;5071617;28;20053;-80
2022/07/25 07:28:12;;;;;;;11.05;7.45;;;;;;;28.47;58.23;93209.03;5064583;28;20068;-80
2022/07/25 07:30:39;;;;;;;11.10;7.50;;;;;;;28.71;57.49;93210.22;5064738;28;20044;-80
2022/07/25 07:33:06;;;;;;;11.18;8.68;;;;;;;28.23;59.20;93213.84;5071889;28;20097;-81
2022/07/25 07:35:33;;;;;;;9.68;7.53;;;;;;;28.83;57.95;93212.16;5070673;28;20447;-80
2022/07/25 07:38:01;;;;;;;12.65;7.97;;;;;;;28.78;56.82;93210.47;5071961;28;20090;-81
2022/07/25 07:40:28;;;;;;;12.85;7.60;;;;;;;29.36;57.97;93212.44;5071504;28;20098;-80
2022/07/25 07:42:55;;;;;;;9.02;7.18;;;;;;;29.47;53.58;93212.75;5071521;28;20515;-80
2022/07/25 07:45:24;;;;;;;11.48;7.20;;;;;;;29.55;54.30;93209.28;5071783;28;20128;-81
2022/07/25 07:47:53;;;;;;;12.93;6.80;;;;;;;29.88;54.43;93197.03;5071315;28;20098;-80
2022/07/25 07:50:22;;;;;;;10.15;6.93;;;;;;;30.47;53.84;93202.91;5071389;28;20102;-81
2022/07/25 07:52:50;;;;;;;10.65;7.03;;;;;;;30.88;49.85;93199.47;5071107;28;20101;-81
2022/07/25 07:58:03;;;;;;;11.18;7.35;;;;;;;31.45;46.79;93194.84;5071307;28;20515;-81
2022/07/25 08:00:31;;;;;;;8.98;7.13;;;;;;;31.56;48.04;93197.75;5071588;28;20045;-82
2022/07/25 08:02:59;;;;;;;10.52;6.65;;;;;;;30.69;50.24;93197.41;5071291;28;20048;-81
2022/07/25 08:05:28;;;;;;;9.38;7.05;;;;;;;29.50;50.41;93208.72;5071084;28;20063;-82
2022/07/25 08:07:55;;;;;;;7.25;6.18;;;;;;;29.78;48.61;93192.16;5071075;28;20086;-82
2022/07/25 08:10:25;;;;;;;7.40;6.15;;;;;;;29.68;46.97;93178.28;5071015;28;20496;-82
2022/07/25 08:12:52;;;;;;;7.75;6.28;;;;;;;28.78;48.00;93197.25;5070858;28;20045;-84
2022/07/25 08:15:21;;;;;;;8.18;6.53;;;;;;;28.76;48.44;93210.03;5070995;28;20484;-82
2022/07/25 08:17:50;;;;;;;9.55;5.55;;;;;;;28.95;47.40;93206.94;5070750;28;20045;-81
2022/07/25 08:20:18;;;;;;;7.00;5.13;;;;;;;28.34;48.58;93205.56;5070798;28;20142;-82
2022/07/25 08:22:49;;;;;;;6.97;5.03;;;;;;;28.40;47.33;93204.25;5070765;28;20049;-82
2022/07/25 08:25:19;;;;;;;7.10;5.32;;;;;;;28.15;48.33;93215.41;5070789;28;20048;-86
2022/07/25 08:27:48;;;;;;;6.70;4.82;;;;;;;28.40;48.27;93205.03;5070574;28;20048;-81
2022/07/25 08:30:16;;;;;;;9.75;5.43;;;;;;;28.17;47.85;93209.81;5055976;28;20052;-82
2022/07/25 08:32:48;;;;;;;7.72;5.10;;;;;;;28.53;49.04;93203.25;5058014;28;20439;-82
2022/07/25 08:35:15;;;;;;;7.03;5.18;;;;;;;28.89;46.92;93205.59;5070168;28;20044;-84
2022/07/25 08:37:42;;;;;;;6.95;5.35;;;;;;;28.88;45.24;93198.78;5071149;28;20044;-83
2022/07/25 08:40:10;;;;;;;8.90;5.40;;;;;;;28.75;44.12;93201.34;5070519;28;20102;-82
2022/07/25 08:42:37;;;;;;;8.00;4.93;;;;;;;28.76;44.52;93213.47;5061045;28;20045;-84
2022/07/25 08:45:09;;;;;;;6.38;4.72;;;;;;;27.93;42.50;93203.31;5061791;28;20051;-85
2022/07/25 08:47:37;;;;;;;7.32;4.95;;;;;;;28.32;43.71;93170.78;5070013;28;20461;-85
2022/07/25 08:50:06;;;;;;;6.60;4.57;;;;;;;28.48;42.79;93206.06;5069988;28;20044;-85
2022/07/25 08:52:34;;;;;;;5.80;4.45;;;;;;;27.52;43.11;93188.88;5070062;28;20052;-85
2022/07/25 08:55:02;;;;;;;6.03;4.53;;;;;;;27.50;45.75;93096.88;5070020;28;20048;-85
2022/07/25 08:57:29;;;;;;;6.15;4.72;;;;;;;28.40;42.92;93185.75;5070002;28;20063;-84
2022/07/25 08:59:58;;;;;;;5.65;4.10;;;;;;;28.61;42.88;93180.44;5058155;28;20095;-86
2022/07/25 09:02:27;;;;;;;7.57;4.28;;;;;;;28.90;41.94;93193.91;5050579;28;20128;-84
2022/07/25 09:04:54;;;;;;;5.30;3.50;;;;;;;29.23;38.78;93179.09;5050563;28;20052;-83
2022/07/25 09:07:35;;;;;;;5.60;4.20;;;;;;;29.42;39.43;93197.09;5069727;28;20485;-88
2022/07/25 09:10:12;;;;;;;6.65;3.67;;;;;;;29.47;38.50;93183.66;5069942;28;20062;-84
2022/07/25 09:12:39;;;;;;;5.03;4.28;;;;;;;29.94;39.20;93184.34;5069874;28;20432;-83
2022/07/25 09:15:08;;;;;;;5.50;4.03;;;;;;;29.93;37.64;93167.66;5070124;28;20041;-87
2022/07/25 09:17:37;;;;;;;5.40;3.55;;;;;;;29.64;38.36;93182.69;5050553;28;20493;-84
2022/07/25 09:20:05;;;;;;;6.18;4.35;;;;;;;28.99;38.31;93149.66;5063798;28;20041;-83
2022/07/25 09:22:32;;;;;;;5.38;4.45;;;;;;;28.11;40.57;93113.41;5069281;28;20416;-87
2022/07/25 09:24:58;;;;;;;7.47;4.45;;;;;;;28.76;40.64;93171.16;5069534;28;20496;-83
2022/07/25 09:27:25;;;;;;;6.25;4.10;;;;;;;28.81;38.29;93163.03;5069725;28;20048;-85
2022/07/25 09:29:55;;;;;;;7.00;4.60;;;;;;;28.79;39.73;93164.47;5069811;28;20063;-83
2022/07/25 09:32:24;;;;;;;5.90;4.60;;;;;;;28.97;41.19;93166.94;5069791;28;20049;-86
2022/07/25 09:34:52;;;;;;;6.03;4.70;;;;;;;29.11;41.69;93162.13;5069934;28;20049;-85
2022/07/25 09:37:25;;;;;;;6.05;4.30;;;;;;;28.65;42.10;93115.28;5069202;28;20041;-90
2022/07/25 09:39:52;;;;;;;6.30;4.38;;;;;;;29.20;41.36;93172.59;5068990;28;20502;-85
2022/07/25 09:42:24;;;;;;;6.15;4.40;;;;;;;29.03;41.33;93179.66;5069510;28;20056;-82
2022/07/25 09:45:03;;;;;;;5.25;4.05;;;;;;;28.94;40.83;93179.72;5069492;28;20049;-85
2022/07/25 09:47:50;;;;;;;8.00;4.25;;;;;;;29.53;36.93;93171.00;5069029;28;20056;-85
2022/07/25 09:50:19;;;;;;;4.63;3.83;;;;;;;29.85;36.95;93171.97;5069274;28;20158;-87
2022/07/25 09:52:47;;;;;;;6.45;4.18;;;;;;;30.09;35.07;93167.00;5069366;28;20052;-84
2022/07/25 09:55:15;;;;;;;7.18;4.50;;;;;;;30.33;36.07;93158.22;5069723;28;20388;-84
2022/07/25 09:57:44;;;;;;;6.10;4.10;;;;;;;30.18;36.86;93119.19;5068485;28;20036;-86
2022/07/25 10:00:13;;;;;;;4.95;3.78;;;;;;;30.38;36.51;93163.31;5069365;28;20106;-89
2022/07/25 10:02:48;;;;;;;5.63;4.18;;;;;;;29.15;38.17;93131.28;5069053;28;20036;-86
2022/07/25 10:05:19;;;;;;;4.55;4.00;;;;;;;29.19;40.49;93155.97;5069527;28;20045;-84
2022/07/25 10:07:52;;;;;;;6.72;4.38;;;;;;;29.39;40.44;93158.84;5069109;28;20102;-89
2022/07/25 10:10:26;;;;;;;5.47;4.10;;;;;;;29.65;38.58;93146.41;5070238;28;20151;-86
2022/07/25 10:13:01;;;;;;;6.28;4.22;;;;;;;29.76;37.53;93158.09;5069395;28;20447;-84
2022/07/25 10:15:40;;;;;;;6.50;4.57;;;;;;;30.36;36.96;93140.91;5068982;28;20056;-84
2022/07/25 10:18:07;;;;;;;5.10;4.00;;;;;;;29.97;35.72;93150.03;5069313;28;20055;-84
2022/07/25 10:20:35;;;;;;;5.60;4.53;;;;;;;30.51;36.35;93142.78;5069216;28;20048;-84
2022/07/25 10:23:04;;;;;;;5.35;4.30;;;;;;;29.54;37.85;93148.75;5069595;28;20044;-82
2022/07/25 10:25:31;;;;;;;6.28;4.78;;;;;;;29.03;39.03;93134.69;5069010;28;20127;-85
2022/07/25 10:28:07;;;;;;;6.55;4.53;;;;;;;29.37;40.41;93141.75;5068916;28;20049;-85
2022/07/25 10:30:36;;;;;;;7.07;4.90;;;;;;;29.75;37.68;93135.38;5068953;28;20087;-84
2022/07/25 10:33:07;;;;;;;5.60;4.63;;;;;;;29.51;37.18;93097.25;5069032;28;20076;-86
2022/07/25 10:36:05;;;;;;;7.22;4.63;;;;;;;29.14;41.83;93145.59;5068754;28;20044;-86
2022/07/25 10:38:34;;;;;;;7.65;4.75;;;;;;;29.67;42.26;93146.84;5006818;28;20046;-87
2022/07/25 10:41:02;;;;;;;5.65;4.82;;;;;;;29.68;42.07;93130.66;5055477;28;20419;-84
2022/07/25 10:43:29;;;;;;;5.63;4.82;;;;;;;30.34;41.32;93120.03;5068930;28;20080;-85
2022/07/25 10:45:58;;;;;;;6.50;4.95;;;;;;;31.00;39.69;93122.47;5068795;28;20094;-86
2022/07/25 10:48:26;;;;;;;6.57;4.45;;;;;;;31.22;37.21;93098.34;5069141;28;20052;-88
2022/07/25 10:50:57;;;;;;;7.20;4.88;;;;;;;30.46;38.28;93094.59;5069103;28;20048;-88
2022/07/25 10:53:34;;;;;;;6.28;4.50;;;;;;;30.70;38.92;93128.19;5068924;28;20052;-89
2022/07/25 10:56:06;;;;;;;5.90;4.50;;;;;;;30.68;40.63;93122.41;5068195;28;20045;-86
2022/07/25 10:58:44;;;;;;;6.75;4.70;;;;;;;30.40;39.60;93126.63;5050879;28;20402;-89
2022/07/25 11:01:12;;;;;;;6.57;4.95;;;;;;;30.09;38.47;93117.44;5068565;28;20090;-89
2022/07/25 11:03:41;;;;;;;6.03;5.00;;;;;;;30.56;39.27;93098.63;5068635;28;20088;-88
2022/07/25 11:06:08;;;;;;;6.68;4.45;;;;;;;31.30;38.63;93102.72;5068519;28;20114;-90
2022/07/25 11:09:09;;;;;;;5.75;4.40;;;;;;;31.14;35.81;93047.03;5061425;28;20041;-87
2022/07/25 11:11:39;;;;;;;5.75;4.72;;;;;;;29.44;38.27;93111.00;5056755;28;20445;-86
2022/07/25 11:14:16;;;;;;;5.82;4.35;;;;;;;29.68;39.85;93120.06;5069375;28;20045;-86
2022/07/25 11:16:44;;;;;;;5.68;4.00;;;;;;;29.39;39.27;93091.94;5070460;28;20086;-87
2022/07/25 11:19:19;;;;;;;7.18;4.93;;;;;;;29.51;39.67;93107.84;5073059;28;20110;-88
2022/07/25 11:21:48;;;;;;;5.50;4.43;;;;;;;29.38;39.55;93087.75;5072295;28;20404;-87
2022/07/25 11:24:35;;;;;;;6.30;4.80;;;;;;;28.99;38.75;93033.31;5072408;28;20044;-84
2022/07/25 11:27:03;;;;;;;7.43;4.55;;;;;;;29.79;37.84;93093.91;5069726;28;20081;-91